sensor_id;sensor_type;location;lat;lon;timestamp;pressure;altitude;pressure_sealevel;temperature;humidity
76374;BME280;65197;50.164;8.012;2023-06-14T00:00:21;95268.13;;;15.11;47.56
76374;BME280;65197;50.164;8.012;2023-06-14T00:02:47;95268.88;;;15.13;47.77
76374;BME280;65197;50.164;8.012;2023-06-14T00:05:13;95258.09;;;15.08;47.48
76374;BME280;65197;50.164;8.012;2023-06-14T00:07:41;95258.31;;;15.05;48.17
76374;BME280;65197;50.164;8.012;2023-06-14T00:10:08;95257.94;;;14.98;48.29
76374;BME280;65197;50.164;8.012;2023-06-14T00:12:34;95254.88;;;14.93;48.51
76374;BME280;65197;50.164;8.012;2023-06-14T00:14:59;95237.84;;;14.80;48.21
76374;BME280;65197;50.164;8.012;2023-06-14T00:17:27;95256.31;;;14.85;48.46
76374;BME280;65197;50.164;8.012;2023-06-14T00:19:58;95254.44;;;14.87;48.72
76374;BME280;65197;50.164;8.012;2023-06-14T00:22:24;95257.03;;;14.87;48.63
76374;BME280;65197;50.164;8.012;2023-06-14T00:24:51;95259.69;;;14.85;48.84
76374;BME280;65197;50.164;8.012;2023-06-14T00:27:16;95256.31;;;14.85;48.81
76374;BME280;65197;50.164;8.012;2023-06-14T00:29:42;95253.03;;;14.83;49.35
76374;BME280;65197;50.164;8.012;2023-06-14T00:32:07;95241.47;;;14.64;50.25
76374;BME280;65197;50.164;8.012;2023-06-14T00:34:33;95256.97;;;14.63;51.12
76374;BME280;65197;50.164;8.012;2023-06-14T00:36:59;95258.22;;;14.57;51.62
76374;BME280;65197;50.164;8.012;2023-06-14T00:39:24;95253.72;;;14.48;51.68
76374;BME280;65197;50.164;8.012;2023-06-14T00:41:50;95260.56;;;14.47;52.28
76374;BME280;65197;50.164;8.012;2023-06-14T00:44:16;95268.06;;;14.38;52.85
76374;BME280;65197;50.164;8.012;2023-06-14T00:46:42;95258.00;;;14.35;53.33
76374;BME280;65197;50.164;8.012;2023-06-14T00:49:08;95253.91;;;14.19;54.28
76374;BME280;65197;50.164;8.012;2023-06-14T00:51:34;95262.50;;;14.18;54.59
76374;BME280;65197;50.164;8.012;2023-06-14T00:54:00;95264.56;;;14.13;55.71
76374;BME280;65197;50.164;8.012;2023-06-14T00:56:26;95253.69;;;13.97;56.14
76374;BME280;65197;50.164;8.012;2023-06-14T00:58:52;95267.22;;;13.99;55.72
76374;BME280;65197;50.164;8.012;2023-06-14T01:01:18;95269.59;;;14.02;55.06
76374;BME280;65197;50.164;8.012;2023-06-14T01:03:43;95247.31;;;13.90;54.72
76374;BME280;65197;50.164;8.012;2023-06-14T01:06:55;95265.56;;;13.98;55.28
76374;BME280;65197;50.164;8.012;2023-06-14T01:12:03;95264.03;;;14.08;52.93
76374;BME280;65197;50.164;8.012;2023-06-14T01:14:31;95258.59;;;14.00;53.49
76374;BME280;65197;50.164;8.012;2023-06-14T01:16:58;95265.38;;;14.01;53.75
76374;BME280;65197;50.164;8.012;2023-06-14T01:19:25;95257.19;;;13.96;52.96
76374;BME280;65197;50.164;8.012;2023-06-14T01:21:54;95264.63;;;13.99;53.32
76374;BME280;65197;50.164;8.012;2023-06-14T01:24:20;95265.97;;;13.92;53.78
76374;BME280;65197;50.164;8.012;2023-06-14T01:26:53;95257.78;;;13.87;54.00
76374;BME280;65197;50.164;8.012;2023-06-14T01:29:22;95262.91;;;13.87;53.67
76374;BME280;65197;50.164;8.012;2023-06-14T01:31:49;95262.91;;;13.87;54.11
76374;BME280;65197;50.164;8.012;2023-06-14T01:34:15;95261.47;;;13.83;54.42
76374;BME280;65197;50.164;8.012;2023-06-14T01:36:41;95259.78;;;13.82;54.60
76374;BME280;65197;50.164;8.012;2023-06-14T01:39:10;95265.66;;;13.84;54.17
76374;BME280;65197;50.164;8.012;2023-06-14T01:41:37;95255.25;;;13.72;54.66
76374;BME280;65197;50.164;8.012;2023-06-14T01:44:03;95250.53;;;13.66;55.17
76374;BME280;65197;50.164;8.012;2023-06-14T01:46:29;95266.03;;;13.65;54.98
76374;BME280;65197;50.164;8.012;2023-06-14T01:48:55;95269.22;;;13.68;54.26
76374;BME280;65197;50.164;8.012;2023-06-14T01:51:20;95260.16;;;13.63;55.95
76374;BME280;65197;50.164;8.012;2023-06-14T01:53:45;95258.31;;;13.52;56.56
76374;BME280;65197;50.164;8.012;2023-06-14T01:56:12;95248.66;;;13.43;57.10
76374;BME280;65197;50.164;8.012;2023-06-14T01:58:37;95259.72;;;13.43;58.13
76374;BME280;65197;50.164;8.012;2023-06-14T02:01:02;95260.50;;;13.31;59.28
76374;BME280;65197;50.164;8.012;2023-06-14T02:03:28;95257.03;;;13.18;60.26
76374;BME280;65197;50.164;8.012;2023-06-14T02:05:53;95245.38;;;12.99;60.69
76374;BME280;65197;50.164;8.012;2023-06-14T02:08:20;95245.13;;;12.90;61.49
76374;BME280;65197;50.164;8.012;2023-06-14T02:10:45;95241.84;;;12.88;62.43
76374;BME280;65197;50.164;8.012;2023-06-14T02:13:11;95256.47;;;12.86;62.18
76374;BME280;65197;50.164;8.012;2023-06-14T02:15:37;95259.22;;;12.83;62.75
76374;BME280;65197;50.164;8.012;2023-06-14T02:18:03;95264.16;;;12.86;62.52
76374;BME280;65197;50.164;8.012;2023-06-14T02:20:28;95262.59;;;12.83;62.90
76374;BME280;65197;50.164;8.012;2023-06-14T02:22:54;95271.66;;;12.74;63.09
76374;BME280;65197;50.164;8.012;2023-06-14T02:25:20;95265.28;;;12.67;63.85
76374;BME280;65197;50.164;8.012;2023-06-14T02:27:45;95257.25;;;12.59;63.88
76374;BME280;65197;50.164;8.012;2023-06-14T02:30:11;95256.69;;;12.54;64.75
76374;BME280;65197;50.164;8.012;2023-06-14T02:32:36;95261.44;;;12.46;65.32
76374;BME280;65197;50.164;8.012;2023-06-14T02:35:02;95269.38;;;12.41;65.67
76374;BME280;65197;50.164;8.012;2023-06-14T02:37:28;95256.72;;;12.26;65.84
76374;BME280;65197;50.164;8.012;2023-06-14T02:39:53;95265.56;;;12.34;66.28
76374;BME280;65197;50.164;8.012;2023-06-14T02:42:19;95269.13;;;12.32;65.97
76374;BME280;65197;50.164;8.012;2023-06-14T02:44:44;95259.97;;;12.28;66.46
76374;BME280;65197;50.164;8.012;2023-06-14T02:47:11;95246.66;;;12.08;66.88
76374;BME280;65197;50.164;8.012;2023-06-14T02:49:37;95262.69;;;12.10;66.53
76374;BME280;65197;50.164;8.012;2023-06-14T02:52:02;95268.72;;;12.09;67.32
76374;BME280;65197;50.164;8.012;2023-06-14T02:54:28;95263.78;;;12.06;67.27
76374;BME280;65197;50.164;8.012;2023-06-14T02:56:53;95262.97;;;12.06;67.49
76374;BME280;65197;50.164;8.012;2023-06-14T02:59:19;95272.84;;;12.12;66.82
76374;BME280;65197;50.164;8.012;2023-06-14T03:01:46;95259.78;;;12.02;66.97
76374;BME280;65197;50.164;8.012;2023-06-14T03:04:12;95261.88;;;11.95;67.64
76374;BME280;65197;50.164;8.012;2023-06-14T03:06:37;95262.69;;;11.96;67.67
76374;BME280;65197;50.164;8.012;2023-06-14T03:09:04;95272.19;;;11.94;67.56
76374;BME280;65197;50.164;8.012;2023-06-14T03:11:30;95274.84;;;11.92;67.51
76374;BME280;65197;50.164;8.012;2023-06-14T03:13:56;95279.66;;;11.97;67.31
76374;BME280;65197;50.164;8.012;2023-06-14T03:16:22;95289.25;;;11.93;67.14
76374;BME280;65197;50.164;8.012;2023-06-14T03:18:50;95281.28;;;11.84;67.75
76374;BME280;65197;50.164;8.012;2023-06-14T03:21:16;95280.69;;;11.79;67.45
76374;BME280;65197;50.164;8.012;2023-06-14T03:23:42;95282.34;;;11.80;67.67
76374;BME280;65197;50.164;8.012;2023-06-14T03:26:08;95289.25;;;11.78;67.87
76374;BME280;65197;50.164;8.012;2023-06-14T03:28:33;95283.25;;;11.79;67.82
76374;BME280;65197;50.164;8.012;2023-06-14T03:30:59;95293.81;;;11.72;68.23
76374;BME280;65197;50.164;8.012;2023-06-14T03:33:25;95273.56;;;11.69;67.41
76374;BME280;65197;50.164;8.012;2023-06-14T03:35:50;95291.25;;;11.72;67.64
76374;BME280;65197;50.164;8.012;2023-06-14T03:38:16;95292.06;;;11.73;67.68
76374;BME280;65197;50.164;8.012;2023-06-14T03:40:41;95290.34;;;11.73;67.39
76374;BME280;65197;50.164;8.012;2023-06-14T03:43:07;95295.84;;;11.82;67.43
76374;BME280;65197;50.164;8.012;2023-06-14T03:45:32;95297.50;;;11.83;67.06
76374;BME280;65197;50.164;8.012;2023-06-14T03:47:57;95298.97;;;11.87;67.07
76374;BME280;65197;50.164;8.012;2023-06-14T03:50:23;95307.19;;;11.92;66.96
76374;BME280;65197;50.164;8.012;2023-06-14T03:52:49;95313.63;;;11.99;66.75
76374;BME280;65197;50.164;8.012;2023-06-14T03:55:15;95315.09;;;12.03;66.64
76374;BME280;65197;50.164;8.012;2023-06-14T03:57:41;95310.00;;;12.03;66.44
76374;BME280;65197;50.164;8.012;2023-06-14T04:00:08;95324.25;;;12.21;66.05
76374;BME280;65197;50.164;8.012;2023-06-14T04:02:34;95320.44;;;12.29;65.79
76374;BME280;65197;50.164;8.012;2023-06-14T04:05:01;95328.84;;;12.31;65.56
76374;BME280;65197;50.164;8.012;2023-06-14T04:07:27;95324.56;;;12.31;65.87
76374;BME280;65197;50.164;8.012;2023-06-14T04:09:53;95316.59;;;12.36;65.16
76374;BME280;65197;50.164;8.012;2023-06-14T04:12:18;95319.72;;;12.41;65.66
76374;BME280;65197;50.164;8.012;2023-06-14T04:14:44;95327.66;;;12.65;64.50
76374;BME280;65197;50.164;8.012;2023-06-14T04:17:09;95331.78;;;12.67;63.44
76374;BME280;65197;50.164;8.012;2023-06-14T04:19:35;95318.09;;;12.68;63.64
76374;BME280;65197;50.164;8.012;2023-06-14T04:22:01;95328.84;;;12.88;62.92
76374;BME280;65197;50.164;8.012;2023-06-14T04:24:28;95326.00;;;12.92;63.37
76374;BME280;65197;50.164;8.012;2023-06-14T04:26:58;95341.47;;;13.05;63.00
76374;BME280;65197;50.164;8.012;2023-06-14T04:29:24;95338.44;;;13.13;62.44
76374;BME280;65197;50.164;8.012;2023-06-14T04:31:51;95324.25;;;13.07;62.05
76374;BME280;65197;50.164;8.012;2023-06-14T04:34:17;95346.66;;;13.32;62.46
76374;BME280;65197;50.164;8.012;2023-06-14T04:36:43;95337.94;;;13.35;61.74
76374;BME280;65197;50.164;8.012;2023-06-14T04:39:15;95342.88;;;13.38;60.56
76374;BME280;65197;50.164;8.012;2023-06-14T04:41:40;95315.00;;;13.33;61.22
76374;BME280;65197;50.164;8.012;2023-06-14T04:44:06;95334.75;;;13.58;60.25
76374;BME280;65197;50.164;8.012;2023-06-14T04:46:32;95325.59;;;13.68;59.79
76374;BME280;65197;50.164;8.012;2023-06-14T04:48:58;95339.66;;;13.75;59.56
76374;BME280;65197;50.164;8.012;2023-06-14T04:51:27;95334.69;;;13.87;59.78
76374;BME280;65197;50.164;8.012;2023-06-14T04:53:55;95330.06;;;14.05;59.17
76374;BME280;65197;50.164;8.012;2023-06-14T04:56:23;95339.31;;;14.07;59.17
76374;BME280;65197;50.164;8.012;2023-06-14T04:58:50;95322.53;;;14.16;58.50
76374;BME280;65197;50.164;8.012;2023-06-14T05:01:15;95315.84;;;14.00;58.26
76374;BME280;65197;50.164;8.012;2023-06-14T05:03:41;95344.38;;;14.21;58.42
76374;BME280;65197;50.164;8.012;2023-06-14T05:06:06;95343.06;;;14.29;57.35
76374;BME280;65197;50.164;8.012;2023-06-14T05:08:32;95349.72;;;14.44;57.92
76374;BME280;65197;50.164;8.012;2023-06-14T05:11:00;95341.78;;;14.61;56.99
76374;BME280;65197;50.164;8.012;2023-06-14T05:13:25;95352.84;;;14.62;56.26
76374;BME280;65197;50.164;8.012;2023-06-14T05:15:53;95359.81;;;14.72;56.27
76374;BME280;65197;50.164;8.012;2023-06-14T05:18:19;95346.88;;;14.74;56.62
76374;BME280;65197;50.164;8.012;2023-06-14T05:20:45;95353.44;;;14.91;56.23
76374;BME280;65197;50.164;8.012;2023-06-14T05:23:11;95356.53;;;14.96;55.53
76374;BME280;65197;50.164;8.012;2023-06-14T05:25:43;95349.28;;;15.26;55.39
76374;BME280;65197;50.164;8.012;2023-06-14T05:28:08;95352.56;;;15.28;55.55
76374;BME280;65197;50.164;8.012;2023-06-14T05:30:34;95359.75;;;15.23;55.21
76374;BME280;65197;50.164;8.012;2023-06-14T05:32:59;95349.66;;;15.33;55.24
76374;BME280;65197;50.164;8.012;2023-06-14T05:35:25;95350.91;;;15.27;55.02
76374;BME280;65197;50.164;8.012;2023-06-14T05:37:52;95361.69;;;15.33;54.66
76374;BME280;65197;50.164;8.012;2023-06-14T05:40:17;95340.19;;;15.34;54.88
76374;BME280;65197;50.164;8.012;2023-06-14T05:42:44;95363.16;;;15.61;54.53
76374;BME280;65197;50.164;8.012;2023-06-14T05:45:09;95372.59;;;15.73;54.24
76374;BME280;65197;50.164;8.012;2023-06-14T05:47:35;95363.66;;;15.90;53.58
76374;BME280;65197;50.164;8.012;2023-06-14T05:50:00;95369.88;;;15.87;53.10
76374;BME280;65197;50.164;8.012;2023-06-14T05:52:25;95359.19;;;15.81;52.75
76374;BME280;65197;50.164;8.012;2023-06-14T05:54:51;95365.09;;;15.94;53.32
76374;BME280;65197;50.164;8.012;2023-06-14T05:57:16;95369.22;;;16.32;53.02
76374;BME280;65197;50.164;8.012;2023-06-14T05:59:42;95371.34;;;16.38;52.03
76374;BME280;65197;50.164;8.012;2023-06-14T06:02:07;95377.91;;;16.53;51.88
76374;BME280;65197;50.164;8.012;2023-06-14T06:04:33;95371.22;;;16.39;50.76
76374;BME280;65197;50.164;8.012;2023-06-14T06:06:58;95380.84;;;17.06;50.50
76374;BME280;65197;50.164;8.012;2023-06-14T06:09:24;95366.31;;;17.16;49.52
76374;BME280;65197;50.164;8.012;2023-06-14T06:11:49;95378.47;;;17.14;49.52
76374;BME280;65197;50.164;8.012;2023-06-14T06:14:14;95381.41;;;17.43;49.12
76374;BME280;65197;50.164;8.012;2023-06-14T06:16:40;95375.09;;;17.25;49.07
76374;BME280;65197;50.164;8.012;2023-06-14T06:19:05;95370.72;;;17.37;49.49
76374;BME280;65197;50.164;8.012;2023-06-14T06:21:31;95379.38;;;17.47;48.98
76374;BME280;65197;50.164;8.012;2023-06-14T06:23:57;95385.72;;;17.09;49.38
76374;BME280;65197;50.164;8.012;2023-06-14T06:26:22;95373.56;;;17.34;50.05
76374;BME280;65197;50.164;8.012;2023-06-14T06:28:48;95379.97;;;17.50;48.95
76374;BME280;65197;50.164;8.012;2023-06-14T06:31:13;95377.78;;;17.35;49.51
76374;BME280;65197;50.164;8.012;2023-06-14T06:33:39;95378.34;;;17.49;48.98
76374;BME280;65197;50.164;8.012;2023-06-14T06:36:05;95380.88;;;17.61;48.76
76374;BME280;65197;50.164;8.012;2023-06-14T06:38:30;95376.44;;;17.74;48.83
76374;BME280;65197;50.164;8.012;2023-06-14T06:40:56;95391.75;;;17.87;48.62
76374;BME280;65197;50.164;8.012;2023-06-14T06:43:22;95386.19;;;18.35;47.88
76374;BME280;65197;50.164;8.012;2023-06-14T06:45:47;95387.03;;;18.03;47.65
76374;BME280;65197;50.164;8.012;2023-06-14T06:48:13;95383.81;;;17.78;47.60
76374;BME280;65197;50.164;8.012;2023-06-14T06:50:38;95390.69;;;18.53;46.73
76374;BME280;65197;50.164;8.012;2023-06-14T06:53:04;95386.00;;;18.47;47.04
76374;BME280;65197;50.164;8.012;2023-06-14T06:55:30;95398.06;;;18.58;47.46
76374;BME280;65197;50.164;8.012;2023-06-14T06:57:55;95400.47;;;18.18;47.42
76374;BME280;65197;50.164;8.012;2023-06-14T07:00:21;95395.50;;;18.47;46.90
76374;BME280;65197;50.164;8.012;2023-06-14T07:02:46;95400.59;;;18.69;46.83
76374;BME280;65197;50.164;8.012;2023-06-14T07:05:12;95410.25;;;19.19;46.47
76374;BME280;65197;50.164;8.012;2023-06-14T07:07:37;95401.81;;;19.57;44.62
76374;BME280;65197;50.164;8.012;2023-06-14T07:10:04;95409.13;;;19.42;43.76
76374;BME280;65197;50.164;8.012;2023-06-14T07:12:30;95416.81;;;19.63;42.04
76374;BME280;65197;50.164;8.012;2023-06-14T07:14:59;95402.31;;;20.01;42.59
76374;BME280;65197;50.164;8.012;2023-06-14T07:17:25;95409.38;;;19.39;42.55
76374;BME280;65197;50.164;8.012;2023-06-14T07:19:51;95403.22;;;19.30;42.34
76374;BME280;65197;50.164;8.012;2023-06-14T07:22:16;95412.09;;;19.38;42.20
76374;BME280;65197;50.164;8.012;2023-06-14T07:24:42;95395.81;;;19.56;41.73
76374;BME280;65197;50.164;8.012;2023-06-14T07:27:08;95408.47;;;20.09;41.60
76374;BME280;65197;50.164;8.012;2023-06-14T07:29:34;95406.56;;;20.02;41.05
76374;BME280;65197;50.164;8.012;2023-06-14T07:32:00;95412.44;;;20.14;41.35
76374;BME280;65197;50.164;8.012;2023-06-14T07:34:25;95422.34;;;19.99;40.78
76374;BME280;65197;50.164;8.012;2023-06-14T07:36:51;95414.28;;;19.42;41.72
76374;BME280;65197;50.164;8.012;2023-06-14T07:39:16;95416.19;;;19.50;40.86
76374;BME280;65197;50.164;8.012;2023-06-14T07:41:42;95422.78;;;19.23;41.82
76374;BME280;65197;50.164;8.012;2023-06-14T07:44:07;95410.13;;;19.20;42.17
76374;BME280;65197;50.164;8.012;2023-06-14T07:46:33;95423.19;;;18.98;42.40
76374;BME280;65197;50.164;8.012;2023-06-14T07:48:59;95424.16;;;18.97;42.69
76374;BME280;65197;50.164;8.012;2023-06-14T07:51:25;95428.50;;;19.27;42.89
76374;BME280;65197;50.164;8.012;2023-06-14T07:53:50;95412.59;;;19.01;42.99
76374;BME280;65197;50.164;8.012;2023-06-14T07:56:16;95420.59;;;19.59;42.46
76374;BME280;65197;50.164;8.012;2023-06-14T07:58:41;95422.59;;;19.15;41.47
76374;BME280;65197;50.164;8.012;2023-06-14T08:01:07;95419.59;;;19.10;42.79
76374;BME280;65197;50.164;8.012;2023-06-14T08:03:33;95421.53;;;19.58;41.68
76374;BME280;65197;50.164;8.012;2023-06-14T08:05:59;95412.00;;;19.89;41.62
76374;BME280;65197;50.164;8.012;2023-06-14T08:08:26;95420.72;;;19.98;41.47
76374;BME280;65197;50.164;8.012;2023-06-14T08:10:51;95419.91;;;19.88;39.74
76374;BME280;65197;50.164;8.012;2023-06-14T08:13:16;95407.22;;;19.44;43.00
76374;BME280;65197;50.164;8.012;2023-06-14T08:15:42;95413.69;;;19.29;42.34
76374;BME280;65197;50.164;8.012;2023-06-14T08:18:07;95427.75;;;19.76;40.96
76374;BME280;65197;50.164;8.012;2023-06-14T08:20:33;95413.41;;;19.63;41.06
76374;BME280;65197;50.164;8.012;2023-06-14T08:23:00;95423.78;;;19.72;40.42
76374;BME280;65197;50.164;8.012;2023-06-14T08:25:25;95421.38;;;19.50;40.24
76374;BME280;65197;50.164;8.012;2023-06-14T08:27:51;95410.59;;;19.75;39.94
76374;BME280;65197;50.164;8.012;2023-06-14T08:30:16;95422.31;;;19.79;39.33
76374;BME280;65197;50.164;8.012;2023-06-14T08:32:43;95413.13;;;20.16;39.23
76374;BME280;65197;50.164;8.012;2023-06-14T08:35:08;95418.75;;;19.71;39.75
76374;BME280;65197;50.164;8.012;2023-06-14T08:37:38;95410.47;;;19.77;40.32
76374;BME280;65197;50.164;8.012;2023-06-14T08:40:28;95419.63;;;20.00;40.76
76374;BME280;65197;50.164;8.012;2023-06-14T08:42:54;95399.44;;;19.84;41.24
76374;BME280;65197;50.164;8.012;2023-06-14T08:45:23;95414.75;;;20.65;39.07
76374;BME280;65197;50.164;8.012;2023-06-14T08:47:50;95416.91;;;20.79;38.66
76374;BME280;65197;50.164;8.012;2023-06-14T08:50:19;95416.94;;;20.89;36.81
76374;BME280;65197;50.164;8.012;2023-06-14T08:52:45;95421.59;;;20.66;37.18
76374;BME280;65197;50.164;8.012;2023-06-14T08:55:16;95439.00;;;20.16;39.18
76374;BME280;65197;50.164;8.012;2023-06-14T08:57:43;95427.59;;;19.68;39.22
76374;BME280;65197;50.164;8.012;2023-06-14T09:00:10;95412.38;;;19.84;38.06
76374;BME280;65197;50.164;8.012;2023-06-14T09:02:40;95424.75;;;19.71;39.94
76374;BME280;65197;50.164;8.012;2023-06-14T09:05:11;95438.66;;;19.70;40.66
76374;BME280;65197;50.164;8.012;2023-06-14T09:07:41;95419.41;;;20.52;39.83
76374;BME280;65197;50.164;8.012;2023-06-14T09:10:14;95430.44;;;20.44;37.85
76374;BME280;65197;50.164;8.012;2023-06-14T09:12:40;95426.47;;;20.11;39.80
76374;BME280;65197;50.164;8.012;2023-06-14T09:15:06;95439.00;;;20.06;38.95
76374;BME280;65197;50.164;8.012;2023-06-14T09:17:37;95432.72;;;19.99;39.20
76374;BME280;65197;50.164;8.012;2023-06-14T09:20:03;95441.19;;;20.20;40.47
76374;BME280;65197;50.164;8.012;2023-06-14T09:22:35;95433.72;;;20.56;40.71
76374;BME280;65197;50.164;8.012;2023-06-14T09:25:01;95431.47;;;21.09;39.77
76374;BME280;65197;50.164;8.012;2023-06-14T09:27:27;95433.03;;;20.34;41.64
76374;BME280;65197;50.164;8.012;2023-06-14T09:29:53;95436.81;;;20.01;40.13
76374;BME280;65197;50.164;8.012;2023-06-14T09:32:20;95444.16;;;21.03;40.08
76374;BME280;65197;50.164;8.012;2023-06-14T09:34:46;95447.19;;;20.40;40.29
76374;BME280;65197;50.164;8.012;2023-06-14T09:37:11;95440.28;;;19.71;40.70
76374;BME280;65197;50.164;8.012;2023-06-14T09:40:03;95439.59;;;20.58;39.15
76374;BME280;65197;50.164;8.012;2023-06-14T09:42:29;95445.81;;;21.04;38.15
76374;BME280;65197;50.164;8.012;2023-06-14T09:44:56;95455.16;;;21.71;37.02
76374;BME280;65197;50.164;8.012;2023-06-14T09:47:23;95450.50;;;21.75;36.35
76374;BME280;65197;50.164;8.012;2023-06-14T09:49:50;95458.63;;;21.90;35.43
76374;BME280;65197;50.164;8.012;2023-06-14T09:52:19;95470.59;;;21.35;36.82
76374;BME280;65197;50.164;8.012;2023-06-14T09:54:46;95452.66;;;20.95;37.62
76374;BME280;65197;50.164;8.012;2023-06-14T09:57:30;95461.00;;;20.60;38.01
76374;BME280;65197;50.164;8.012;2023-06-14T09:59:59;95466.88;;;20.52;37.82
76374;BME280;65197;50.164;8.012;2023-06-14T10:02:31;95467.41;;;20.56;36.59
76374;BME280;65197;50.164;8.012;2023-06-14T10:05:05;95471.22;;;20.91;36.24
76374;BME280;65197;50.164;8.012;2023-06-14T10:07:35;95468.59;;;21.57;35.27
76374;BME280;65197;50.164;8.012;2023-06-14T10:10:02;95473.91;;;21.18;35.48
76374;BME280;65197;50.164;8.012;2023-06-14T10:12:27;95465.81;;;21.41;34.87
76374;BME280;65197;50.164;8.012;2023-06-14T10:14:53;95478.72;;;21.60;34.99
76374;BME280;65197;50.164;8.012;2023-06-14T10:17:27;95457.09;;;21.97;34.62
76374;BME280;65197;50.164;8.012;2023-06-14T10:22:47;95453.34;;;22.27;33.76
76374;BME280;65197;50.164;8.012;2023-06-14T10:25:29;95444.56;;;21.18;35.79
76374;BME280;65197;50.164;8.012;2023-06-14T10:28:18;95454.56;;;20.83;36.51
76374;BME280;65197;50.164;8.012;2023-06-14T10:31:05;95470.09;;;21.03;36.00
76374;BME280;65197;50.164;8.012;2023-06-14T10:33:31;95460.50;;;21.32;35.43
76374;BME280;65197;50.164;8.012;2023-06-14T10:36:07;95444.00;;;21.61;33.83
76374;BME280;65197;50.164;8.012;2023-06-14T10:38:33;95459.13;;;21.28;35.55
76374;BME280;65197;50.164;8.012;2023-06-14T10:41:00;95468.69;;;21.38;35.17
76374;BME280;65197;50.164;8.012;2023-06-14T10:43:26;95466.75;;;21.30;35.61
76374;BME280;65197;50.164;8.012;2023-06-14T10:46:14;95469.25;;;21.69;36.63
76374;BME280;65197;50.164;8.012;2023-06-14T10:48:41;95460.84;;;22.12;34.86
76374;BME280;65197;50.164;8.012;2023-06-14T10:51:18;95449.94;;;22.26;34.82
76374;BME280;65197;50.164;8.012;2023-06-14T10:53:49;95471.97;;;22.22;34.28
76374;BME280;65197;50.164;8.012;2023-06-14T10:56:29;95460.53;;;21.60;34.18
76374;BME280;65197;50.164;8.012;2023-06-14T10:58:57;95472.94;;;21.66;35.69
76374;BME280;65197;50.164;8.012;2023-06-14T11:01:36;95476.53;;;22.38;33.86
76374;BME280;65197;50.164;8.012;2023-06-14T11:04:10;95470.44;;;22.29;33.32
76374;BME280;65197;50.164;8.012;2023-06-14T11:06:49;95468.81;;;22.28;34.03
76374;BME280;65197;50.164;8.012;2023-06-14T11:09:45;95474.53;;;22.50;33.77
76374;BME280;65197;50.164;8.012;2023-06-14T11:12:17;95458.88;;;21.96;34.77
76374;BME280;65197;50.164;8.012;2023-06-14T11:14:46;95474.25;;;21.80;34.71
76374;BME280;65197;50.164;8.012;2023-06-14T11:17:13;95466.50;;;21.70;34.68
76374;BME280;65197;50.164;8.012;2023-06-14T11:19:38;95485.44;;;21.80;35.26
76374;BME280;65197;50.164;8.012;2023-06-14T11:22:04;95484.34;;;22.56;33.96
76374;BME280;65197;50.164;8.012;2023-06-14T11:24:29;95480.09;;;22.55;34.12
76374;BME280;65197;50.164;8.012;2023-06-14T11:26:55;95481.28;;;21.13;35.43
76374;BME280;65197;50.164;8.012;2023-06-14T11:29:21;95482.31;;;21.40;34.72
76374;BME280;65197;50.164;8.012;2023-06-14T11:31:47;95479.22;;;22.01;34.18
76374;BME280;65197;50.164;8.012;2023-06-14T11:34:12;95476.56;;;22.10;33.82
76374;BME280;65197;50.164;8.012;2023-06-14T11:36:39;95475.56;;;22.39;35.00
76374;BME280;65197;50.164;8.012;2023-06-14T11:39:06;95467.78;;;22.93;33.52
76374;BME280;65197;50.164;8.012;2023-06-14T11:41:43;95476.81;;;22.17;34.19
76374;BME280;65197;50.164;8.012;2023-06-14T11:44:10;95467.34;;;22.44;33.94
76374;BME280;65197;50.164;8.012;2023-06-14T11:46:37;95480.03;;;22.47;33.76
76374;BME280;65197;50.164;8.012;2023-06-14T11:49:03;95458.47;;;23.08;32.76
76374;BME280;65197;50.164;8.012;2023-06-14T11:51:31;95464.84;;;23.48;32.94
76374;BME280;65197;50.164;8.012;2023-06-14T11:53:57;95456.56;;;22.56;33.50
76374;BME280;65197;50.164;8.012;2023-06-14T11:56:23;95465.91;;;22.67;35.12
76374;BME280;65197;50.164;8.012;2023-06-14T11:58:49;95467.59;;;23.12;34.58
76374;BME280;65197;50.164;8.012;2023-06-14T12:01:17;95462.75;;;23.17;34.54
76374;BME280;65197;50.164;8.012;2023-06-14T12:03:50;95475.34;;;23.30;34.36
76374;BME280;65197;50.164;8.012;2023-06-14T12:06:15;95465.31;;;22.73;34.14
76374;BME280;65197;50.164;8.012;2023-06-14T12:08:43;95465.91;;;22.04;34.19
76374;BME280;65197;50.164;8.012;2023-06-14T12:11:12;95487.56;;;22.22;34.09
76374;BME280;65197;50.164;8.012;2023-06-14T12:13:39;95464.50;;;22.91;34.21
76374;BME280;65197;50.164;8.012;2023-06-14T12:16:07;95453.34;;;22.80;33.24
76374;BME280;65197;50.164;8.012;2023-06-14T12:18:34;95463.19;;;22.05;34.39
76374;BME280;65197;50.164;8.012;2023-06-14T12:21:00;95469.09;;;21.70;35.73
76374;BME280;65197;50.164;8.012;2023-06-14T12:23:49;95461.22;;;22.35;34.54
76374;BME280;65197;50.164;8.012;2023-06-14T12:26:15;95460.72;;;22.04;33.77
76374;BME280;65197;50.164;8.012;2023-06-14T12:28:42;95468.44;;;22.59;34.24
76374;BME280;65197;50.164;8.012;2023-06-14T12:31:08;95456.66;;;22.47;33.91
76374;BME280;65197;50.164;8.012;2023-06-14T12:33:34;95469.56;;;23.18;33.52
76374;BME280;65197;50.164;8.012;2023-06-14T12:35:59;95461.53;;;21.77;34.47
76374;BME280;65197;50.164;8.012;2023-06-14T12:38:25;95459.00;;;22.22;33.66
76374;BME280;65197;50.164;8.012;2023-06-14T12:40:53;95450.69;;;22.36;32.94
76374;BME280;65197;50.164;8.012;2023-06-14T12:43:18;95460.47;;;22.78;33.05
76374;BME280;65197;50.164;8.012;2023-06-14T12:45:44;95459.22;;;23.00;33.29
76374;BME280;65197;50.164;8.012;2023-06-14T12:48:09;95453.88;;;23.02;32.34
76374;BME280;65197;50.164;8.012;2023-06-14T12:50:35;95470.16;;;22.05;34.08
76374;BME280;65197;50.164;8.012;2023-06-14T12:53:00;95466.78;;;21.95;34.36
76374;BME280;65197;50.164;8.012;2023-06-14T12:55:25;95467.91;;;21.92;35.33
76374;BME280;65197;50.164;8.012;2023-06-14T12:57:51;95473.63;;;21.96;34.35
76374;BME280;65197;50.164;8.012;2023-06-14T13:00:17;95477.81;;;21.79;34.08
76374;BME280;65197;50.164;8.012;2023-06-14T13:02:43;95474.56;;;21.67;34.05
76374;BME280;65197;50.164;8.012;2023-06-14T13:05:09;95471.41;;;22.01;33.56